createdAt,value
2019-01-02T00:00:14.765Z,5.48
2019-01-02T00:01:13.734Z,5.5
2019-01-02T00:02:14.208Z,5.41
2019-01-02T00:03:14.615Z,5.41
2019-01-02T00:04:14.197Z,5.39
2019-01-02T00:05:14.180Z,5.36
2019-01-02T00:06:13.934Z,5.43
2019-01-02T00:07:13.930Z,5.44
2019-01-02T00:08:14.833Z,5.33
2019-01-02T00:09:13.924Z,5.36
2019-01-02T00:10:14.132Z,5.25
2019-01-02T00:11:14.146Z,5.21
2019-01-02T00:12:13.630Z,5.28
2019-01-02T00:13:13.897Z,5.17
2019-01-02T00:14:14.145Z,5.14
2019-01-02T00:15:13.842Z,5.11
2019-01-02T00:16:14.152Z,5.14
2019-01-02T00:17:14.083Z,5.25
2019-01-02T00:18:13.829Z,5.08
2019-01-02T00:19:14.354Z,5.12
2019-01-02T00:20:14.096Z,5
2019-01-02T00:21:13.807Z,5.08
2019-01-02T00:22:13.798Z,5.05
2019-01-02T00:23:14.022Z,4.99
2019-01-02T00:24:14.516Z,4.99
2019-01-02T00:25:13.752Z,4.96
2019-01-02T00:26:13.990Z,5.02
2019-01-02T00:27:14.294Z,5.02
2019-01-02T00:28:13.979Z,4.93
2019-01-02T00:29:13.975Z,4.96
2019-01-02T00:30:14.263Z,4.99
2019-01-02T00:31:13.951Z,5.04
2019-01-02T00:32:14.354Z,5.05
2019-01-02T00:33:13.931Z,5.05
2019-01-02T00:34:13.928Z,5.1
2019-01-02T00:35:14.560Z,5
2019-01-02T00:36:13.893Z,5.07
2019-01-02T00:37:14.253Z,5.08
2019-01-02T00:38:13.898Z,5.11
2019-01-02T00:39:13.733Z,5.02
2019-01-02T00:40:14.567Z,5.04
2019-01-02T00:41:13.882Z,5.05
2019-01-02T00:42:13.588Z,5.02
2019-01-02T00:43:13.837Z,5.14
2019-01-02T00:44:14.799Z,5.1
2019-01-02T00:45:14.224Z,5.08
2019-01-02T00:46:13.551Z,5.18
2019-01-02T00:47:13.549Z,5.18
2019-01-02T00:48:14.241Z,5.18
2019-01-02T00:49:13.814Z,5.17
2019-01-02T00:50:13.799Z,5.21
2019-01-02T00:51:13.504Z,5.29
2019-01-02T00:52:13.491Z,5.25
2019-01-02T00:53:14.321Z,5.28
2019-01-02T00:54:13.731Z,5.3
2019-01-02T00:55:14.097Z,5.26
2019-01-02T00:56:13.685Z,5.26
2019-01-02T00:57:13.453Z,5.28
2019-01-02T00:58:13.992Z,5.28
2019-01-02T00:59:13.691Z,5.3
2019-01-02T01:00:14.064Z,5.3
2019-01-02T01:01:13.405Z,5.26
2019-01-02T01:02:13.630Z,5.36
2019-01-02T01:03:14.264Z,5.38
2019-01-02T01:04:13.429Z,5.36
2019-01-02T01:05:14.245Z,5.43
2019-01-02T01:06:13.625Z,5.35
2019-01-02T01:07:13.344Z,5.41
2019-01-02T01:08:14.192Z,5.36
2019-01-02T01:09:13.336Z,5.39
2019-01-02T01:10:14.088Z,5.36
2019-01-02T01:11:13.319Z,5.41
2019-01-02T01:12:13.566Z,5.33
2019-01-02T01:13:13.813Z,5.41
2019-01-02T01:14:13.281Z,5.36
2019-01-02T01:15:14.064Z,5.36
2019-01-02T01:16:13.506Z,5.36
2019-01-02T01:17:13.255Z,5.3
2019-01-02T01:18:14.170Z,5.32
2019-01-02T01:19:13.292Z,5.28
2019-01-02T01:20:13.564Z,5.3
2019-01-02T01:21:13.220Z,5.28
2019-01-02T01:22:13.207Z,5.3
2019-01-02T01:23:14.184Z,5.3
2019-01-02T01:24:13.188Z,5.11
2019-01-02T01:25:13.442Z,5.17
2019-01-02T01:26:13.989Z,5.18
2019-01-02T01:27:13.419Z,5.15
2019-01-02T01:28:13.141Z,5.15
2019-01-02T01:29:14.096Z,5.1
2019-01-02T01:30:13.373Z,5.15
2019-01-02T01:31:13.367Z,5.15
2019-01-02T01:32:13.977Z,5.15
2019-01-02T01:33:13.413Z,5.11
2019-01-02T01:34:13.099Z,5.12
2019-01-02T01:35:13.974Z,5.15
2019-01-02T01:36:13.087Z,5.12
2019-01-02T01:37:13.309Z,5.15
2019-01-02T01:38:13.607Z,5.15
2019-01-02T01:39:13.291Z,5.11
2019-01-02T01:40:13.039Z,5.12
2019-01-02T01:41:13.883Z,5.12
2019-01-02T01:42:13.019Z,5.14
2019-01-02T01:43:13.556Z,5.14
2019-01-02T01:44:13.010Z,5.11
2019-01-02T01:45:13.240Z,5.17
2019-01-02T01:46:13.446Z,5.15
2019-01-02T01:47:12.985Z,5.14
2019-01-02T01:48:12.962Z,5.14
2019-01-02T01:49:13.947Z,5.12
2019-01-02T01:50:13.190Z,5.12
2019-01-02T01:51:13.185Z,5.21
2019-01-02T01:52:13.245Z,5.04
2019-01-02T01:53:12.658Z,5.1
2019-01-02T01:54:13.131Z,5.08
2019-01-02T01:55:13.682Z,5.02
2019-01-02T01:56:13.133Z,5.04
2019-01-02T01:57:13.112Z,5.04
2019-01-02T01:58:12.860Z,4.94
2019-01-02T01:59:13.094Z,4.9
2019-01-02T02:00:13.291Z,4.9
2019-01-02T02:01:12.839Z,4.84
2019-01-02T02:02:13.076Z,4.8
2019-01-02T02:03:13.380Z,4.77
2019-01-02T02:04:13.057Z,4.75
2019-01-02T02:05:13.036Z,4.67
2019-01-02T02:06:13.470Z,4.7
2019-01-02T02:07:13.022Z,4.67
2019-01-02T02:08:12.773Z,4.59
2019-01-02T02:09:13.655Z,4.56
2019-01-02T02:10:12.750Z,4.59
2019-01-02T02:11:12.732Z,4.6
2019-01-02T02:12:13.384Z,4.53
2019-01-02T02:13:12.464Z,4.58
2019-01-02T02:14:12.954Z,4.5
2019-01-02T02:15:13.403Z,4.53
2019-01-02T02:16:12.709Z,4.6
2019-01-02T02:17:12.698Z,4.59
2019-01-02T02:18:12.838Z,4.49
2019-01-02T02:19:12.905Z,4.56
2019-01-02T02:20:13.019Z,4.58
2019-01-02T02:21:12.639Z,4.58
2019-01-02T02:22:12.868Z,4.63
2019-01-02T02:23:13.319Z,4.63
2019-01-02T02:24:12.838Z,4.63
2019-01-02T02:25:12.864Z,4.62
2019-01-02T02:26:13.347Z,4.73
2019-01-02T02:27:12.331Z,4.71
2019-01-02T02:28:12.848Z,4.73
2019-01-02T02:29:13.419Z,4.7
2019-01-02T02:30:12.789Z,4.77
2019-01-02T02:31:13.180Z,4.68
2019-01-02T02:32:12.778Z,4.77
2019-01-02T02:33:13.540Z,4.68
2019-01-02T02:34:13.212Z,4.59
2019-01-02T02:35:13.585Z,4.62
2019-01-02T02:36:13.145Z,4.67
2019-01-02T02:37:12.473Z,4.67
2019-01-02T02:38:13.007Z,4.67
2019-01-02T02:39:13.409Z,4.71
2019-01-02T02:40:12.702Z,4.6
2019-01-02T02:41:12.789Z,4.68
2019-01-02T02:42:13.080Z,4.74
2019-01-02T02:43:12.657Z,4.77
2019-01-02T02:44:13.389Z,4.71
2019-01-02T02:45:13.307Z,4.75
2019-01-02T02:46:12.991Z,4.78
2019-01-02T02:47:12.131Z,4.87
2019-01-02T02:48:13.321Z,4.9
2019-01-02T02:49:13.310Z,4.8
2019-01-02T02:50:12.376Z,4.94
2019-01-02T02:51:13.272Z,4.9
2019-01-02T02:52:12.335Z,4.9
2019-01-02T02:53:13.162Z,4.82
2019-01-02T02:54:13.304Z,4.84
2019-01-02T02:55:12.568Z,4.86
2019-01-02T02:56:13.314Z,4.86
2019-01-02T02:57:12.279Z,4.96
2019-01-02T02:58:12.541Z,5.04
2019-01-02T02:59:12.955Z,5
2019-01-02T03:00:12.492Z,5
2019-01-02T03:01:12.867Z,5.04
2019-01-02T03:02:13.330Z,5.07
2019-01-02T03:03:12.212Z,5.05
2019-01-02T03:04:12.877Z,5.1
2019-01-02T03:05:12.836Z,5.02
2019-01-02T03:06:12.219Z,5.1
2019-01-02T03:07:12.898Z,5.11
2019-01-02T03:08:12.665Z,5.11
2019-01-02T03:09:12.407Z,5.11
2019-01-02T03:10:12.680Z,5.2
2019-01-02T03:11:12.908Z,5.07
2019-01-02T03:12:12.395Z,5.12
2019-01-02T03:13:12.696Z,5.12
2019-01-02T03:14:12.825Z,5.14
2019-01-02T03:15:11.849Z,5.11
2019-01-02T03:16:12.981Z,5.11
2019-01-02T03:17:12.715Z,5.11
2019-01-02T03:18:12.345Z,5.07
2019-01-02T03:19:12.964Z,5.11
2019-01-02T03:20:12.957Z,5.05
2019-01-02T03:21:12.300Z,5.12
2019-01-02T03:22:12.844Z,5.04
2019-01-02T03:23:12.505Z,5.07
2019-01-02T03:24:11.775Z,5.11
2019-01-02T03:25:12.758Z,5.11
2019-01-02T03:26:12.579Z,5.18
2019-01-02T03:27:12.242Z,5.14
2019-01-02T03:28:12.953Z,5.1
2019-01-02T03:29:12.776Z,5.12
2019-01-02T03:30:12.858Z,5.08
2019-01-02T03:31:12.669Z,5.04
2019-01-02T03:32:12.885Z,5.08
2019-01-02T03:33:11.911Z,5.04
2019-01-02T03:34:11.937Z,4.97
2019-01-02T03:35:12.154Z,4.96
2019-01-02T03:36:12.698Z,5
2019-01-02T03:37:12.129Z,4.96
2019-01-02T03:38:11.888Z,4.97
2019-01-02T03:39:12.121Z,4.97
2019-01-02T03:40:11.853Z,4.9
2019-01-02T03:41:11.872Z,4.86
2019-01-02T03:42:11.837Z,4.86
2019-01-02T03:43:12.068Z,4.8
2019-01-02T03:44:11.817Z,4.86
2019-01-02T03:45:11.797Z,4.78
2019-01-02T03:46:11.802Z,4.8
2019-01-02T03:47:12.046Z,4.74
2019-01-02T03:48:11.767Z,4.73
2019-01-02T03:49:12.021Z,4.74
2019-01-02T03:50:12.006Z,4.67
2019-01-02T03:51:12.036Z,4.62
2019-01-02T03:52:11.814Z,4.63
2019-01-02T03:53:11.718Z,4.6
2019-01-02T03:54:11.720Z,4.52
2019-01-02T03:55:11.942Z,4.53
2019-01-02T03:56:11.946Z,4.53
2019-01-02T03:57:11.928Z,4.49
2019-01-02T03:58:11.919Z,4.45
2019-01-02T03:59:11.409Z,4.41
2019-01-02T04:00:11.900Z,4.41
2019-01-02T04:01:11.643Z,4.48
2019-01-02T04:02:11.884Z,4.34
2019-01-02T04:03:11.884Z,4.44
2019-01-02T04:04:11.861Z,4.44
2019-01-02T04:05:11.849Z,4.41
2019-01-02T04:06:14.741Z,4.4
2019-01-02T04:07:11.583Z,4.37
2019-01-02T04:08:11.567Z,4.35
2019-01-02T04:09:11.556Z,4.3
2019-01-02T04:10:11.543Z,4.32
2019-01-02T04:11:11.803Z,4.24
2019-01-02T04:12:11.921Z,4.28
2019-01-02T04:13:11.515Z,4.23
2019-01-02T04:14:11.695Z,4.16
2019-01-02T04:15:11.738Z,4.19
2019-01-02T04:16:11.737Z,4.19
2019-01-02T04:17:11.731Z,4.17
2019-01-02T04:18:11.720Z,4.17
2019-01-02T04:19:11.698Z,4.19
2019-01-02T04:20:11.472Z,4.16
2019-01-02T04:21:11.686Z,4.08
2019-01-02T04:22:11.669Z,4.13
2019-01-02T04:23:11.662Z,4.2
2019-01-02T04:24:11.142Z,4.16
2019-01-02T04:25:11.633Z,4.04
2019-01-02T04:26:11.635Z,4.08
2019-01-02T04:27:11.626Z,4.02
2019-01-02T04:28:11.363Z,4.08
2019-01-02T04:29:11.612Z,4.08
2019-01-02T04:30:11.334Z,4.2
2019-01-02T04:31:11.577Z,4.13
2019-01-02T04:32:12.840Z,4.28
2019-01-02T04:33:11.306Z,4.16
2019-01-02T04:34:11.045Z,4.1
2019-01-02T04:35:11.337Z,4.16
2019-01-02T04:36:11.300Z,4.2
2019-01-02T04:37:11.320Z,4.16
2019-01-02T04:38:11.273Z,4.31
2019-01-02T04:39:11.499Z,4.28
2019-01-02T04:40:12.909Z,4.31
2019-01-02T04:41:11.467Z,4.35
2019-01-02T04:42:11.207Z,4.38
2019-01-02T04:43:11.470Z,4.38
2019-01-02T04:44:11.431Z,4.4
2019-01-02T04:45:11.178Z,4.41
2019-01-02T04:46:10.915Z,4.4
2019-01-02T04:47:11.418Z,4.4
2019-01-02T04:48:11.401Z,4.37
2019-01-02T04:49:11.398Z,4.38
2019-01-02T04:50:11.136Z,4.42
2019-01-02T04:51:11.150Z,4.42
2019-01-02T04:52:11.948Z,4.4
2019-01-02T04:53:11.118Z,4.35
2019-01-02T04:54:11.076Z,4.38
2019-01-02T04:55:11.320Z,4.4
2019-01-02T04:56:11.055Z,4.4
2019-01-02T04:57:11.306Z,4.48
2019-01-02T04:58:11.289Z,4.4
2019-01-02T04:59:11.037Z,4.44
2019-01-02T05:00:11.030Z,4.41
2019-01-02T05:01:11.259Z,4.52
2019-01-02T05:02:11.012Z,4.48
2019-01-02T05:03:11.256Z,4.56
2019-01-02T05:04:11.232Z,4.52
2019-01-02T05:05:10.732Z,4.58
2019-01-02T05:06:10.965Z,4.53
2019-01-02T05:07:11.742Z,4.58
2019-01-02T05:08:11.201Z,4.58
2019-01-02T05:09:10.694Z,4.6
2019-01-02T05:10:10.937Z,4.55
2019-01-02T05:11:11.150Z,4.5
2019-01-02T05:12:10.905Z,4.59
2019-01-02T05:13:11.149Z,4.59
2019-01-02T05:14:10.880Z,4.58
2019-01-02T05:15:11.129Z,4.56
2019-01-02T05:16:11.106Z,4.59
2019-01-02T05:17:11.096Z,4.53
2019-01-02T05:18:10.578Z,4.53
2019-01-02T05:19:11.078Z,4.58
2019-01-02T05:20:10.596Z,4.59
2019-01-02T05:21:10.810Z,4.52
2019-01-02T05:22:10.802Z,4.58
2019-01-02T05:23:11.032Z,4.56
2019-01-02T05:24:11.033Z,4.5
2019-01-02T05:25:10.529Z,4.5
2019-01-02T05:26:10.767Z,4.58
2019-01-02T05:27:10.764Z,4.55
2019-01-02T05:28:10.968Z,4.59
2019-01-02T05:29:10.983Z,4.53
2019-01-02T05:30:11.369Z,4.52
2019-01-02T05:31:10.951Z,4.52
2019-01-02T05:32:10.944Z,4.52
2019-01-02T05:33:10.677Z,4.49
2019-01-02T05:34:10.928Z,4.49
2019-01-02T05:35:10.675Z,4.48
2019-01-02T05:36:10.901Z,4.48
2019-01-02T05:37:10.452Z,4.44
2019-01-02T05:38:10.899Z,4.53
2019-01-02T05:39:10.394Z,4.45
2019-01-02T05:40:10.360Z,4.45
2019-01-02T05:41:10.591Z,4.41
2019-01-02T05:42:10.643Z,4.49
2019-01-02T05:43:10.823Z,4.45
2019-01-02T05:44:10.569Z,4.41
2019-01-02T05:45:10.819Z,4.48
2019-01-02T05:46:10.546Z,4.49
2019-01-02T05:47:10.787Z,4.49
2019-01-02T05:48:10.775Z,4.49
2019-01-02T05:49:10.528Z,4.49
2019-01-02T05:50:10.499Z,4.48
2019-01-02T05:51:10.790Z,4.45
2019-01-02T05:52:10.747Z,4.38
2019-01-02T05:53:10.728Z,4.49
2019-01-02T05:54:10.728Z,4.45
2019-01-02T05:55:10.701Z,4.44
2019-01-02T05:56:10.691Z,4.49
2019-01-02T05:57:10.446Z,4.49
2019-01-02T05:58:10.669Z,4.45
2019-01-02T05:59:10.421Z,4.42
2019-01-02T06:00:10.672Z,4.41
2019-01-02T06:01:10.667Z,4.44
2019-01-02T06:02:10.133Z,4.49
2019-01-02T06:03:10.392Z,4.45
2019-01-02T06:04:10.387Z,4.45
2019-01-02T06:05:10.627Z,4.45
2019-01-02T06:06:10.588Z,4.49
2019-01-02T06:07:10.341Z,4.48
2019-01-02T06:08:10.078Z,4.42
2019-01-02T06:09:10.333Z,4.53
2019-01-02T06:10:10.541Z,4.52
2019-01-02T06:11:10.286Z,4.53
2019-01-02T06:12:10.523Z,4.55
2019-01-02T06:13:10.544Z,4.55
2019-01-02T06:14:10.257Z,4.53
2019-01-02T06:15:10.545Z,4.5
2019-01-02T06:16:09.997Z,4.55
2019-01-02T06:17:10.229Z,4.53
2019-01-02T06:18:09.984Z,4.5
2019-01-02T06:19:10.481Z,4.58
2019-01-02T06:20:10.232Z,4.6
2019-01-02T06:21:10.187Z,4.59
2019-01-02T06:22:09.926Z,4.49
2019-01-02T06:23:10.168Z,4.62
2019-01-02T06:24:10.406Z,4.59
2019-01-02T06:25:10.146Z,4.5
2019-01-02T06:26:10.391Z,4.53
2019-01-02T06:27:10.382Z,4.58
2019-01-02T06:28:10.378Z,4.55
2019-01-02T06:29:10.357Z,4.58
2019-01-02T06:30:11.152Z,4.58
2019-01-02T06:31:10.348Z,4.59
2019-01-02T06:32:10.080Z,4.48
2019-01-02T06:33:10.068Z,4.53
2019-01-02T06:34:10.078Z,4.5
2019-01-02T06:35:10.041Z,4.62
2019-01-02T06:36:10.284Z,4.48
2019-01-02T06:37:10.034Z,4.59
2019-01-02T06:38:10.277Z,4.55
2019-01-02T06:39:10.248Z,4.55
2019-01-02T06:40:10.246Z,4.59
2019-01-02T06:41:09.995Z,4.59
2019-01-02T06:42:10.223Z,4.55
2019-01-02T06:43:10.210Z,4.55
2019-01-02T06:44:10.206Z,4.62
2019-01-02T06:45:10.193Z,4.56
2019-01-02T06:46:09.932Z,4.6
2019-01-02T06:47:09.932Z,4.56
2019-01-02T06:48:10.155Z,4.55
2019-01-02T06:49:10.153Z,4.56
2019-01-02T06:50:09.662Z,4.53
2019-01-02T06:51:09.911Z,4.5
2019-01-02T06:52:09.881Z,4.56
2019-01-02T06:53:10.117Z,4.52
2019-01-02T06:54:09.851Z,4.56
2019-01-02T06:55:09.833Z,4.62
2019-01-02T06:56:09.845Z,4.5
2019-01-02T06:57:09.835Z,4.55
2019-01-02T06:58:10.058Z,4.53
2019-01-02T06:59:09.797Z,4.56
2019-01-02T07:00:09.792Z,4.5
2019-01-02T07:01:10.028Z,4.59
2019-01-02T07:02:09.777Z,4.59
2019-01-02T07:03:09.776Z,4.58
2019-01-02T07:04:09.751Z,4.56
2019-01-02T07:05:09.744Z,4.49
2019-01-02T07:06:09.983Z,4.53
2019-01-02T07:07:09.463Z,4.59
2019-01-02T07:08:09.711Z,4.62
2019-01-02T07:09:09.944Z,4.5
2019-01-02T07:10:09.949Z,4.5
2019-01-02T07:11:09.945Z,4.56
2019-01-02T07:12:09.922Z,4.55
2019-01-02T07:13:09.892Z,4.55
2019-01-02T07:14:09.944Z,4.52
2019-01-02T07:15:09.888Z,4.52
2019-01-02T07:16:09.634Z,4.58
2019-01-02T07:17:09.612Z,4.55
2019-01-02T07:18:09.862Z,4.56
2019-01-02T07:19:09.871Z,4.55
2019-01-02T07:20:09.830Z,4.55
2019-01-02T07:21:09.866Z,4.58
2019-01-02T07:22:09.821Z,4.59
2019-01-02T07:23:09.856Z,4.6
2019-01-02T07:24:09.792Z,4.66
2019-01-02T07:25:09.790Z,4.6
2019-01-02T07:26:09.798Z,4.56
2019-01-02T07:27:09.555Z,4.53
2019-01-02T07:28:09.757Z,4.56
2019-01-02T07:29:09.738Z,4.59
2019-01-02T07:30:09.731Z,4.66
2019-01-02T07:31:09.730Z,4.67
2019-01-02T07:32:09.470Z,4.58
2019-01-02T07:33:09.716Z,4.62
2019-01-02T07:34:09.185Z,4.62
2019-01-02T07:35:09.430Z,4.58
2019-01-02T07:36:09.665Z,4.6
2019-01-02T07:37:09.664Z,4.6
2019-01-02T07:38:09.639Z,4.63
2019-01-02T07:39:09.403Z,4.63
2019-01-02T07:40:09.623Z,4.67
2019-01-02T07:41:09.618Z,4.63
2019-01-02T07:42:09.605Z,4.7
2019-01-02T07:43:09.588Z,4.6
2019-01-02T07:44:09.353Z,4.66
2019-01-02T07:45:09.317Z,4.66
2019-01-02T07:46:09.562Z,4.62
2019-01-02T07:47:09.558Z,4.62
2019-01-02T07:48:09.543Z,4.6
2019-01-02T07:49:09.281Z,4.73
2019-01-02T07:50:09.534Z,4.6
2019-01-02T07:51:09.522Z,4.66
2019-01-02T07:52:09.505Z,4.74
2019-01-02T07:53:10.528Z,4.78
2019-01-02T07:54:09.476Z,4.7
2019-01-02T07:55:08.974Z,4.7
2019-01-02T07:56:09.471Z,4.73
2019-01-02T07:57:09.500Z,4.77
2019-01-02T07:58:09.202Z,4.73
2019-01-02T07:59:09.425Z,4.68
2019-01-02T08:00:09.166Z,4.7
2019-01-02T08:01:09.419Z,4.74
2019-01-02T08:02:08.899Z,4.73
2019-01-02T08:03:09.390Z,4.73
2019-01-02T08:04:09.389Z,4.71
2019-01-02T08:05:09.388Z,4.73
2019-01-02T08:06:09.122Z,4.67
2019-01-02T08:07:09.099Z,4.71
2019-01-02T08:08:09.086Z,4.71
2019-01-02T08:09:09.081Z,4.73
2019-01-02T08:10:08.828Z,4.7
2019-01-02T08:11:09.322Z,4.7
2019-01-02T08:12:09.050Z,4.75
2019-01-02T08:13:08.789Z,4.77
2019-01-02T08:14:09.029Z,4.77
2019-01-02T08:15:08.769Z,4.66
2019-01-02T08:16:09.257Z,4.75
2019-01-02T08:17:09.251Z,4.8
2019-01-02T08:18:08.986Z,4.8
2019-01-02T08:19:09.216Z,4.73
2019-01-02T08:20:08.981Z,4.86
2019-01-02T08:21:08.957Z,4.78
2019-01-02T08:22:09.202Z,4.78
2019-01-02T08:23:09.199Z,4.75
2019-01-02T08:24:09.195Z,4.86
2019-01-02T08:25:09.208Z,4.84
2019-01-02T08:26:09.155Z,4.8
2019-01-02T08:27:09.149Z,4.82
2019-01-02T08:28:08.914Z,4.8
2019-01-02T08:29:08.900Z,4.87
2019-01-02T08:30:09.123Z,4.87
2019-01-02T08:31:09.116Z,4.78
2019-01-02T08:32:08.607Z,4.86
2019-01-02T08:33:09.096Z,4.86
2019-01-02T08:34:08.824Z,4.87
2019-01-02T08:35:09.072Z,4.86
2019-01-02T08:36:08.573Z,4.92
2019-01-02T08:37:09.047Z,4.87
2019-01-02T08:38:09.048Z,4.78
2019-01-02T08:39:08.786Z,4.8
2019-01-02T08:40:08.530Z,4.86
2019-01-02T08:41:09.013Z,5.02
2019-01-02T08:42:08.993Z,4.8
2019-01-02T08:43:08.748Z,4.8
2019-01-02T08:44:08.494Z,4.9
2019-01-02T08:45:08.725Z,4.84
2019-01-02T08:46:08.954Z,4.78
2019-01-02T08:47:08.709Z,4.93
2019-01-02T08:48:08.943Z,4.9
2019-01-02T08:49:08.942Z,4.99
2019-01-02T08:50:08.928Z,4.82
2019-01-02T08:51:08.666Z,4.8
2019-01-02T08:52:08.904Z,4.82
2019-01-02T08:53:08.639Z,4.9
2019-01-02T08:54:09.835Z,4.82
2019-01-02T08:55:08.626Z,4.92
2019-01-02T08:56:08.604Z,4.82
2019-01-02T08:57:08.862Z,4.86
2019-01-02T08:58:08.587Z,4.96
2019-01-02T08:59:08.833Z,4.9
2019-01-02T09:00:08.322Z,4.92
2019-01-02T09:01:08.309Z,4.9
2019-01-02T09:02:08.812Z,4.9
2019-01-02T09:03:08.783Z,4.92
2019-01-02T09:04:08.788Z,4.96
2019-01-02T09:05:08.521Z,4.99
2019-01-02T09:06:08.777Z,4.96
2019-01-02T09:07:08.740Z,5.02
2019-01-02T09:08:08.245Z,5.05
2019-01-02T09:09:10.934Z,5.05
2019-01-02T09:10:08.734Z,5.15
2019-01-02T09:11:08.704Z,5.12
2019-01-02T09:12:08.706Z,5.17
2019-01-02T09:13:08.448Z,5.15
2019-01-02T09:14:08.432Z,5.11
2019-01-02T09:15:08.421Z,5.12
2019-01-02T09:16:08.425Z,5.28
2019-01-02T09:17:08.431Z,5.23
2019-01-02T09:18:08.648Z,5.26
2019-01-02T09:19:08.130Z,5.23
2019-01-02T09:20:08.381Z,5.32
2019-01-02T09:21:08.657Z,5.26
2019-01-02T09:22:08.355Z,5.25
2019-01-02T09:23:08.349Z,5.29
2019-01-02T09:24:08.349Z,5.18
2019-01-02T09:25:08.341Z,5.18
2019-01-02T09:26:08.574Z,5.14
2019-01-02T09:27:08.302Z,5.23
2019-01-02T09:28:08.309Z,5.21
2019-01-02T09:29:08.328Z,5.18
2019-01-02T09:30:08.068Z,5.11
2019-01-02T09:31:08.520Z,5.12
2019-01-02T09:32:08.507Z,5.17
2019-01-02T09:33:08.501Z,5.07
2019-01-02T09:34:08.265Z,5.14
2019-01-02T09:35:08.240Z,5.11
2019-01-02T09:36:08.246Z,5.1
2019-01-02T09:37:07.978Z,5.07
2019-01-02T09:38:08.453Z,5.05
2019-01-02T09:39:08.513Z,5.07
2019-01-02T09:40:08.493Z,5.02
2019-01-02T09:41:08.494Z,5.12
2019-01-02T09:42:08.447Z,5.17
2019-01-02T09:43:08.414Z,5.2
2019-01-02T09:44:08.394Z,5.14
2019-01-02T09:45:08.400Z,5.2
2019-01-02T09:46:08.388Z,5.15
2019-01-02T09:47:08.401Z,5.11
2019-01-02T09:48:08.550Z,5.18
2019-01-02T09:49:08.131Z,5.25
2019-01-02T09:50:08.537Z,5.3
2019-01-02T09:51:08.335Z,5.28
2019-01-02T09:52:08.331Z,5.25
2019-01-02T09:53:08.340Z,5.29
2019-01-02T09:54:08.308Z,5.38
2019-01-02T09:55:09.745Z,5.28
2019-01-02T09:56:07.840Z,5.26
2019-01-02T09:57:08.274Z,5.32
2019-01-02T09:58:08.268Z,5.3
2019-01-02T09:59:08.264Z,5.23
2019-01-02T10:00:08.031Z,5.28
2019-01-02T10:01:08.248Z,5.26
2019-01-02T10:02:08.238Z,5.28
2019-01-02T10:03:07.989Z,5.28
2019-01-02T10:04:09.577Z,5.25
2019-01-02T10:05:07.755Z,5.21
2019-01-02T10:06:07.979Z,5.28
2019-01-02T10:07:07.952Z,5.25
2019-01-02T10:08:08.178Z,5.29
2019-01-02T10:09:08.185Z,5.3
2019-01-02T10:10:08.212Z,5.26
2019-01-02T10:11:08.149Z,5.23
2019-01-02T10:12:07.916Z,5.25
2019-01-02T10:13:08.144Z,5.3
2019-01-02T10:14:08.144Z,5.3
2019-01-02T10:15:08.676Z,5.29
2019-01-02T10:16:07.879Z,5.26
2019-01-02T10:17:07.849Z,5.29
2019-01-02T10:18:07.849Z,5.21
2019-01-02T10:19:07.836Z,5.15
2019-01-02T10:20:07.586Z,5.07
2019-01-02T10:21:08.058Z,5.11
2019-01-02T10:22:08.079Z,5.05
2019-01-02T10:23:07.857Z,5.12
2019-01-02T10:24:07.872Z,5.11
2019-01-02T10:25:10.967Z,5.1
2019-01-02T10:26:08.055Z,5.14
2019-01-02T10:27:08.053Z,5.18
2019-01-02T10:28:08.014Z,5.17
2019-01-02T10:29:07.991Z,5.18
2019-01-02T10:30:07.735Z,5.12
2019-01-02T10:31:07.975Z,5.1
2019-01-02T10:32:07.966Z,5.08
2019-01-02T10:33:07.950Z,5.02
2019-01-02T10:34:07.702Z,5.05
2019-01-02T10:35:07.448Z,5.05
2019-01-02T10:36:07.932Z,4.96
2019-01-02T10:37:07.677Z,5
2019-01-02T10:38:07.419Z,4.93
2019-01-02T10:39:07.401Z,4.99
2019-01-02T10:40:07.636Z,4.94
2019-01-02T10:41:07.646Z,5.11
2019-01-02T10:42:07.863Z,5.29
2019-01-02T10:43:07.618Z,5.26
2019-01-02T10:44:07.840Z,5.39
2019-01-02T10:45:07.589Z,5.51
2019-01-02T10:46:07.601Z,5.53
2019-01-02T10:47:07.832Z,5.71
2019-01-02T10:48:07.817Z,5.69
2019-01-02T10:49:07.805Z,5.68
2019-01-02T10:50:07.544Z,5.71
2019-01-02T10:51:07.806Z,5.64
2019-01-02T10:52:07.779Z,5.47
2019-01-02T10:53:07.776Z,5.54
2019-01-02T10:54:07.563Z,5.44
2019-01-02T10:55:07.746Z,5.43
2019-01-02T10:56:07.520Z,5.33
2019-01-02T10:57:07.802Z,5.26
2019-01-02T10:58:07.727Z,5.33
2019-01-02T10:59:07.469Z,5.28
2019-01-02T11:00:07.483Z,5.3
2019-01-02T11:01:07.443Z,5.32
2019-01-02T11:02:07.460Z,5.28
2019-01-02T11:03:07.676Z,5.36
2019-01-02T11:04:07.717Z,5.39
2019-01-02T11:05:07.684Z,5.38
2019-01-02T11:06:07.445Z,5.44
2019-01-02T11:07:07.399Z,5.46
2019-01-02T11:08:08.028Z,5.41
2019-01-02T11:09:07.406Z,5.53
2019-01-02T11:10:07.612Z,5.57
2019-01-02T11:11:07.369Z,5.54
2019-01-02T11:12:07.603Z,5.47
2019-01-02T11:13:07.595Z,5.44
2019-01-02T11:14:07.337Z,5.61
2019-01-02T11:15:07.579Z,5.48
2019-01-02T11:16:07.581Z,5.53
2019-01-02T11:17:07.315Z,5.47
2019-01-02T11:18:07.606Z,5.44
2019-01-02T11:19:07.054Z,5.47
2019-01-02T11:20:07.534Z,5.43
2019-01-02T11:21:07.266Z,5.44
2019-01-02T11:22:07.505Z,5.35
2019-01-02T11:23:07.531Z,5.38
2019-01-02T11:24:07.003Z,5.46
2019-01-02T11:25:07.505Z,5.53
2019-01-02T11:26:07.493Z,5.44
2019-01-02T11:27:07.477Z,5.5
2019-01-02T11:28:07.458Z,5.46
2019-01-02T11:29:07.446Z,5.39
2019-01-02T11:30:07.438Z,5.38
2019-01-02T11:31:07.446Z,5.33
2019-01-02T11:32:07.427Z,5.39
2019-01-02T11:33:06.929Z,5.33
2019-01-02T11:34:07.173Z,5.39
2019-01-02T11:35:08.425Z,5.44
2019-01-02T11:36:07.392Z,5.39
2019-01-02T11:37:07.376Z,5.43
2019-01-02T11:38:07.119Z,5.35
2019-01-02T11:39:07.117Z,5.47
2019-01-02T11:40:07.339Z,5.57
2019-01-02T11:41:06.834Z,5.56
2019-01-02T11:42:07.340Z,5.68
2019-01-02T11:43:07.083Z,5.64
2019-01-02T11:44:07.321Z,5.53
2019-01-02T11:45:06.829Z,5.54
2019-01-02T11:46:07.048Z,5.53
2019-01-02T11:47:07.294Z,5.46
2019-01-02T11:48:07.289Z,5.43
2019-01-02T11:49:07.024Z,5.41
2019-01-02T11:50:07.265Z,5.41
2019-01-02T11:51:07.302Z,5.33
2019-01-02T11:52:06.997Z,5.32
2019-01-02T11:53:07.239Z,5.2
2019-01-02T11:54:07.223Z,5.18
2019-01-02T11:55:07.211Z,5.08
2019-01-02T11:56:07.954Z,5.02
2019-01-02T11:57:07.188Z,5.07
2019-01-02T11:58:06.936Z,5.12
2019-01-02T11:59:06.934Z,5.11
2019-01-02T12:00:07.188Z,5.14
2019-01-02T12:01:07.158Z,5.17
2019-01-02T12:02:07.154Z,5.21
2019-01-02T12:03:07.162Z,5.29
2019-01-02T12:04:06.876Z,5.26
2019-01-02T12:05:07.125Z,5.28
2019-01-02T12:06:07.139Z,5.3
2019-01-02T12:07:07.106Z,5.46
2019-01-02T12:08:06.625Z,5.44
2019-01-02T12:09:07.151Z,5.46
2019-01-02T12:10:06.834Z,5.53
2019-01-02T12:11:06.809Z,5.47
2019-01-02T12:12:07.047Z,5.48
2019-01-02T12:13:07.115Z,5.46
2019-01-02T12:14:07.024Z,5.56
2019-01-02T12:15:07.022Z,5.59
2019-01-02T12:16:06.524Z,5.59
2019-01-02T12:17:06.786Z,5.59
2019-01-02T12:18:07.018Z,5.72
2019-01-02T12:19:06.743Z,5.66
2019-01-02T12:20:06.980Z,5.73
2019-01-02T12:21:06.987Z,5.84
2019-01-02T12:22:06.969Z,5.87
2019-01-02T12:23:06.973Z,6.01
2019-01-02T12:24:06.519Z,6.01
2019-01-02T12:25:06.958Z,6.11
2019-01-02T12:26:11.270Z,6.12
2019-01-02T12:27:06.421Z,6.24
2019-01-02T12:28:06.671Z,6.28
2019-01-02T12:29:06.657Z,6.27
2019-01-02T12:30:06.414Z,6.27
2019-01-02T12:31:06.898Z,6.33
2019-01-02T12:32:06.395Z,6.26
2019-01-02T12:33:06.900Z,6.26
2019-01-02T12:34:06.887Z,6.27
2019-01-02T12:35:06.853Z,6.16
2019-01-02T12:36:06.352Z,6.12
2019-01-02T12:37:06.837Z,6.09
2019-01-02T12:38:06.836Z,6.07
2019-01-02T12:39:06.585Z,6.05
2019-01-02T12:40:06.609Z,6.11
2019-01-02T12:41:06.609Z,6.16
2019-01-02T12:42:06.606Z,6.22
2019-01-02T12:43:06.545Z,6.26
2019-01-02T12:44:06.536Z,6.36
2019-01-02T12:45:06.783Z,6.41
2019-01-02T12:46:06.762Z,6.41
2019-01-02T12:47:06.506Z,6.41
2019-01-02T12:48:06.759Z,6.44
2019-01-02T12:49:06.749Z,6.42
2019-01-02T12:50:06.740Z,6.48
2019-01-02T12:51:06.479Z,6.46
2019-01-02T12:52:06.481Z,6.46
2019-01-02T12:53:06.701Z,6.49
2019-01-02T12:54:06.697Z,6.49
2019-01-02T12:55:06.706Z,6.49
2019-01-02T12:56:06.704Z,6.51
2019-01-02T12:57:07.535Z,6.54
2019-01-02T12:58:06.666Z,6.48
2019-01-02T12:59:06.412Z,6.36
2019-01-02T13:00:06.663Z,6.36
2019-01-02T13:01:06.640Z,6.36
2019-01-02T13:02:06.405Z,6.24
2019-01-02T13:03:06.388Z,6.07
2019-01-02T13:04:06.622Z,5.99
2019-01-02T13:05:06.645Z,5.91
2019-01-02T13:06:06.614Z,5.97
2019-01-02T13:07:06.333Z,5.91
2019-01-02T13:08:06.347Z,5.86
2019-01-02T13:09:06.317Z,5.68
2019-01-02T13:10:06.558Z,5.54
2019-01-02T13:11:06.569Z,5.56
2019-01-02T13:12:06.654Z,5.51
2019-01-02T13:13:06.537Z,5.29
2019-01-02T13:14:06.536Z,5.1
2019-01-02T13:15:06.516Z,5.07
2019-01-02T13:16:06.511Z,5
2019-01-02T13:17:06.495Z,4.87
2019-01-02T13:18:06.515Z,4.87
2019-01-02T13:19:06.485Z,4.77
2019-01-02T13:20:06.283Z,4.77
2019-01-02T13:21:06.452Z,4.73
2019-01-02T13:22:06.488Z,4.66